sensor_id;sensor_type;location;lat;lon;timestamp;pressure;altitude;pressure_sealevel;temperature;humidity
35649;BME280;21768;48.562;13.414;2023-02-18T00:00:06;97983.03;;;11.44;74.86
35649;BME280;21768;48.562;13.414;2023-02-18T00:02:33;97982.06;;;11.42;75.09
35649;BME280;21768;48.562;13.414;2023-02-18T00:04:58;97985.34;;;11.41;75.08
35649;BME280;21768;48.562;13.414;2023-02-18T00:07:24;97979.53;;;11.42;74.97
35649;BME280;21768;48.562;13.414;2023-02-18T00:09:49;97985.47;;;11.42;75.35
35649;BME280;21768;48.562;13.414;2023-02-18T00:12:14;97979.31;;;11.39;75.22
35649;BME280;21768;48.562;13.414;2023-02-18T00:14:40;97979.31;;;11.39;75.37
35649;BME280;21768;48.562;13.414;2023-02-18T00:17:05;97988.56;;;11.38;75.58
35649;BME280;21768;48.562;13.414;2023-02-18T00:19:30;97982.63;;;11.38;75.33
35649;BME280;21768;48.562;13.414;2023-02-18T00:21:57;97980.88;;;11.37;75.71
35649;BME280;21768;48.562;13.414;2023-02-18T00:24:22;97976.72;;;11.37;75.75
35649;BME280;21768;48.562;13.414;2023-02-18T00:26:51;97991.09;;;11.38;75.66
35649;BME280;21768;48.562;13.414;2023-02-18T00:29:17;97981.06;;;11.40;75.70
35649;BME280;21768;48.562;13.414;2023-02-18T00:31:43;97979.53;;;11.42;75.37
35649;BME280;21768;48.562;13.414;2023-02-18T00:34:09;97985.47;;;11.42;75.67
35649;BME280;21768;48.562;13.414;2023-02-18T00:36:35;97985.47;;;11.42;75.55
35649;BME280;21768;48.562;13.414;2023-02-18T00:39:02;97980.63;;;11.45;75.41
35649;BME280;21768;48.562;13.414;2023-02-18T00:41:30;97983.28;;;11.47;75.22
35649;BME280;21768;48.562;13.414;2023-02-18T00:43:55;97973.16;;;11.47;75.04
35649;BME280;21768;48.562;13.414;2023-02-18T00:46:21;97974.25;;;11.50;74.81
35649;BME280;21768;48.562;13.414;2023-02-18T00:48:48;97981.28;;;11.54;74.51
35649;BME280;21768;48.562;13.414;2023-02-18T00:51:13;97984.16;;;11.59;74.21
35649;BME280;21768;48.562;13.414;2023-02-18T00:53:39;97981.03;;;11.63;74.08
35649;BME280;21768;48.562;13.414;2023-02-18T00:56:05;97975.31;;;11.66;73.77
35649;BME280;21768;48.562;13.414;2023-02-18T00:58:31;97984.78;;;11.68;73.59
35649;BME280;21768;48.562;13.414;2023-02-18T01:00:56;97971.47;;;11.71;73.44
35649;BME280;21768;48.562;13.414;2023-02-18T01:03:22;97967.41;;;11.73;73.33
35649;BME280;21768;48.562;13.414;2023-02-18T01:05:48;97983.69;;;11.76;73.11
35649;BME280;21768;48.562;13.414;2023-02-18T01:08:15;97982.16;;;11.78;72.75
35649;BME280;21768;48.562;13.414;2023-02-18T01:10:43;97974.78;;;11.81;72.69
35649;BME280;21768;48.562;13.414;2023-02-18T01:13:10;97990.94;;;11.83;72.17
35649;BME280;21768;48.562;13.414;2023-02-18T01:15:37;97980.28;;;11.87;71.89
35649;BME280;21768;48.562;13.414;2023-02-18T01:18:02;97966.94;;;11.90;71.75
35649;BME280;21768;48.562;13.414;2023-02-18T01:20:28;97976.38;;;11.92;71.48
35649;BME280;21768;48.562;13.414;2023-02-18T01:22:54;97990.22;;;11.98;71.27
35649;BME280;21768;48.562;13.414;2023-02-18T01:25:19;97981.09;;;12.00;71.27
35649;BME280;21768;48.562;13.414;2023-02-18T01:27:44;97974.72;;;12.05;71.19
35649;BME280;21768;48.562;13.414;2023-02-18T01:30:13;97972.41;;;12.08;70.73
35649;BME280;21768;48.562;13.414;2023-02-18T01:32:39;97972.59;;;12.11;70.77
35649;BME280;21768;48.562;13.414;2023-02-18T01:35:05;97972.59;;;12.11;70.56
35649;BME280;21768;48.562;13.414;2023-02-18T01:37:31;97974.53;;;12.15;70.48
35649;BME280;21768;48.562;13.414;2023-02-18T01:39:57;97967.84;;;12.15;70.37
35649;BME280;21768;48.562;13.414;2023-02-18T01:42:26;97971.25;;;12.16;70.36
35649;BME280;21768;48.562;13.414;2023-02-18T01:44:53;97962.31;;;12.21;69.95
35649;BME280;21768;48.562;13.414;2023-02-18T01:47:19;97968.16;;;12.20;69.97
35649;BME280;21768;48.562;13.414;2023-02-18T01:49:48;97964.63;;;12.18;70.01
35649;BME280;21768;48.562;13.414;2023-02-18T01:52:17;97971.56;;;12.20;70.05
35649;BME280;21768;48.562;13.414;2023-02-18T01:54:48;97969.91;;;12.21;69.84
35649;BME280;21768;48.562;13.414;2023-02-18T01:57:20;97956.38;;;12.20;69.72
35649;BME280;21768;48.562;13.414;2023-02-18T01:59:55;97947.13;;;12.21;69.78
35649;BME280;21768;48.562;13.414;2023-02-18T02:02:24;97952.09;;;12.19;69.37
35649;BME280;21768;48.562;13.414;2023-02-18T02:04:51;97957.38;;;12.22;68.95
35649;BME280;21768;48.562;13.414;2023-02-18T02:07:18;97950.44;;;12.20;69.27
35649;BME280;21768;48.562;13.414;2023-02-18T02:09:45;97948.78;;;12.20;69.48
35649;BME280;21768;48.562;13.414;2023-02-18T02:32:20;97943.28;;;12.26;68.43
35649;BME280;21768;48.562;13.414;2023-02-18T02:35:19;97946.56;;;12.25;68.50
35649;BME280;21768;48.562;13.414;2023-02-18T02:37:58;97933.91;;;12.25;68.40
35649;BME280;21768;48.562;13.414;2023-02-18T02:40:37;97943.94;;;12.23;68.41
35649;BME280;21768;48.562;13.414;2023-02-18T02:48:23;97938.00;;;12.23;68.69
35649;BME280;21768;48.562;13.414;2023-02-18T02:51:10;97939.75;;;12.24;68.73
35649;BME280;21768;48.562;13.414;2023-02-18T02:53:40;97938.00;;;12.23;68.80
35649;BME280;21768;48.562;13.414;2023-02-18T02:56:10;97939.53;;;12.21;68.85
35649;BME280;21768;48.562;13.414;2023-02-18T02:58:37;97936.91;;;12.19;69.02
35649;BME280;21768;48.562;13.414;2023-02-18T03:01:19;97936.03;;;12.19;69.03
35649;BME280;21768;48.562;13.414;2023-02-18T03:09:25;97929.88;;;12.15;68.75
35649;BME280;21768;48.562;13.414;2023-02-18T03:12:18;97933.97;;;12.13;69.45
35649;BME280;21768;48.562;13.414;2023-02-18T03:15:01;97922.13;;;12.12;69.35
35649;BME280;21768;48.562;13.414;2023-02-18T03:17:45;97920.25;;;12.10;69.33
35649;BME280;21768;48.562;13.414;2023-02-18T03:20:19;97918.50;;;12.09;69.32
35649;BME280;21768;48.562;13.414;2023-02-18T03:22:48;97921.03;;;12.09;69.10
35649;BME280;21768;48.562;13.414;2023-02-18T03:25:15;97922.78;;;12.10;69.09
35649;BME280;21768;48.562;13.414;2023-02-18T03:27:43;97916.97;;;12.11;69.33
35649;BME280;21768;48.562;13.414;2023-02-18T03:30:18;97917.91;;;12.13;68.88
35649;BME280;21768;48.562;13.414;2023-02-18T03:32:46;97917.34;;;12.17;68.80
35649;BME280;21768;48.562;13.414;2023-02-18T03:35:15;97910.75;;;12.19;68.29
35649;BME280;21768;48.562;13.414;2023-02-18T03:37:52;97904.91;;;12.20;68.37
35649;BME280;21768;48.562;13.414;2023-02-18T03:40:18;97906.56;;;12.19;68.01
35649;BME280;21768;48.562;13.414;2023-02-18T03:42:44;97912.28;;;12.17;68.17
35649;BME280;21768;48.562;13.414;2023-02-18T03:45:10;97902.38;;;12.20;67.68
35649;BME280;21768;48.562;13.414;2023-02-18T03:47:36;97906.88;;;12.24;67.71
35649;BME280;21768;48.562;13.414;2023-02-18T03:50:02;97899.28;;;12.24;67.71
35649;BME280;21768;48.562;13.414;2023-02-18T03:52:27;97912.13;;;12.27;67.35
35649;BME280;21768;48.562;13.414;2023-02-18T03:54:53;97908.94;;;12.30;67.57
35649;BME280;21768;48.562;13.414;2023-02-18T03:57:18;97910.69;;;12.31;67.18
35649;BME280;21768;48.562;13.414;2023-02-18T03:59:43;97903.19;;;12.32;67.11
35649;BME280;21768;48.562;13.414;2023-02-18T04:02:09;97908.38;;;12.34;66.94
35649;BME280;21768;48.562;13.414;2023-02-18T04:04:34;97911.00;;;12.35;67.20
35649;BME280;21768;48.562;13.414;2023-02-18T04:06:59;97910.22;;;12.36;66.96
35649;BME280;21768;48.562;13.414;2023-02-18T04:09:25;97917.88;;;12.38;66.85
35649;BME280;21768;48.562;13.414;2023-02-18T04:11:50;97909.34;;;12.36;66.84
35649;BME280;21768;48.562;13.414;2023-02-18T04:14:16;97914.56;;;12.39;66.78
35649;BME280;21768;48.562;13.414;2023-02-18T04:16:42;97914.50;;;12.37;66.85
35649;BME280;21768;48.562;13.414;2023-02-18T04:19:07;97908.47;;;12.35;66.58
35649;BME280;21768;48.562;13.414;2023-02-18T04:21:33;97903.41;;;12.35;67.00
35649;BME280;21768;48.562;13.414;2023-02-18T04:23:59;97915.06;;;12.33;67.55
35649;BME280;21768;48.562;13.414;2023-02-18T04:26:25;97911.66;;;12.33;67.70
35649;BME280;21768;48.562;13.414;2023-02-18T04:28:50;97909.13;;;12.33;67.84
35649;BME280;21768;48.562;13.414;2023-02-18T04:31:16;97911.56;;;12.31;68.01
35649;BME280;21768;48.562;13.414;2023-02-18T04:33:41;97906.50;;;12.31;68.11
35649;BME280;21768;48.562;13.414;2023-02-18T04:36:07;97908.84;;;12.28;68.22
35649;BME280;21768;48.562;13.414;2023-02-18T04:38:32;97902.78;;;12.26;68.31
35649;BME280;21768;48.562;13.414;2023-02-18T04:40:58;97906.88;;;12.24;68.37
35649;BME280;21768;48.562;13.414;2023-02-18T04:43:23;97910.94;;;12.22;68.54
35649;BME280;21768;48.562;13.414;2023-02-18T04:45:49;97912.50;;;12.20;68.72
35649;BME280;21768;48.562;13.414;2023-02-18T04:48:14;97914.47;;;12.24;68.66
35649;BME280;21768;48.562;13.414;2023-02-18T04:50:39;97923.59;;;12.22;68.93
35649;BME280;21768;48.562;13.414;2023-02-18T04:53:05;97919.31;;;12.21;68.95
35649;BME280;21768;48.562;13.414;2023-02-18T04:55:30;97912.28;;;12.17;69.21
35649;BME280;21768;48.562;13.414;2023-02-18T04:57:55;97918.91;;;12.15;69.35
35649;BME280;21768;48.562;13.414;2023-02-18T05:00:21;97913.66;;;12.12;69.59
35649;BME280;21768;48.562;13.414;2023-02-18T05:02:46;97907.63;;;12.10;69.89
35649;BME280;21768;48.562;13.414;2023-02-18T05:05:13;97916.75;;;12.08;70.21
35649;BME280;21768;48.562;13.414;2023-02-18T05:07:39;97918.41;;;12.07;70.05
35649;BME280;21768;48.562;13.414;2023-02-18T05:10:07;97910.16;;;12.10;69.89
35649;BME280;21768;48.562;13.414;2023-02-18T05:12:33;97914.31;;;12.09;69.95
35649;BME280;21768;48.562;13.414;2023-02-18T05:14:58;97917.72;;;12.10;69.85
35649;BME280;21768;48.562;13.414;2023-02-18T05:17:23;97911.78;;;12.09;69.70
35649;BME280;21768;48.562;13.414;2023-02-18T05:19:49;97910.31;;;12.13;69.47
35649;BME280;21768;48.562;13.414;2023-02-18T05:22:14;97907.00;;;12.14;69.23
35649;BME280;21768;48.562;13.414;2023-02-18T05:24:40;97895.34;;;12.16;69.12
35649;BME280;21768;48.562;13.414;2023-02-18T05:27:05;97898.88;;;12.18;69.16
35649;BME280;21768;48.562;13.414;2023-02-18T05:29:31;97899.75;;;12.18;68.81
35649;BME280;21768;48.562;13.414;2023-02-18T05:31:56;97893.81;;;12.18;68.90
35649;BME280;21768;48.562;13.414;2023-02-18T05:34:22;97896.34;;;12.18;68.94
35649;BME280;21768;48.562;13.414;2023-02-18T05:36:47;97888.94;;;12.21;68.87
35649;BME280;21768;48.562;13.414;2023-02-18T05:39:12;97897.31;;;12.20;68.49
35649;BME280;21768;48.562;13.414;2023-02-18T05:41:38;97896.66;;;12.22;68.41
35649;BME280;21768;48.562;13.414;2023-02-18T05:44:03;97900.16;;;12.24;68.33
35649;BME280;21768;48.562;13.414;2023-02-18T05:46:47;97902.00;;;12.27;68.11
35649;BME280;21768;48.562;13.414;2023-02-18T05:49:13;97896.94;;;12.27;67.83
35649;BME280;21768;48.562;13.414;2023-02-18T05:51:39;97913.13;;;12.29;67.93
35649;BME280;21768;48.562;13.414;2023-02-18T05:54:04;97910.03;;;12.33;67.76
35649;BME280;21768;48.562;13.414;2023-02-18T05:56:30;97904.97;;;12.33;67.76
35649;BME280;21768;48.562;13.414;2023-02-18T05:58:55;97916.84;;;12.34;67.50
35649;BME280;21768;48.562;13.414;2023-02-18T06:01:20;97918.59;;;12.35;67.46
35649;BME280;21768;48.562;13.414;2023-02-18T06:03:46;97908.47;;;12.35;67.40
35649;BME280;21768;48.562;13.414;2023-02-18T06:06:11;97915.28;;;12.36;67.40
35649;BME280;21768;48.562;13.414;2023-02-18T06:08:36;97921.13;;;12.35;67.37
35649;BME280;21768;48.562;13.414;2023-02-18T06:11:02;97915.06;;;12.33;67.21
35649;BME280;21768;48.562;13.414;2023-02-18T06:13:28;97925.09;;;12.32;67.26
35649;BME280;21768;48.562;13.414;2023-02-18T06:15:53;97923.25;;;12.29;67.62
35649;BME280;21768;48.562;13.414;2023-02-18T06:18:20;97925.00;;;12.30;67.41
35649;BME280;21768;48.562;13.414;2023-02-18T06:20:46;97924.31;;;12.33;67.49
35649;BME280;21768;48.562;13.414;2023-02-18T06:23:11;97925.88;;;12.31;67.52
35649;BME280;21768;48.562;13.414;2023-02-18T06:25:37;97920.91;;;12.32;67.29
35649;BME280;21768;48.562;13.414;2023-02-18T06:28:02;97915.97;;;12.34;67.46
35649;BME280;21768;48.562;13.414;2023-02-18T06:30:28;97931.25;;;12.35;67.34
35649;BME280;21768;48.562;13.414;2023-02-18T06:32:53;97928.59;;;12.34;67.25
35649;BME280;21768;48.562;13.414;2023-02-18T06:35:18;97925.97;;;12.32;67.53
35649;BME280;21768;48.562;13.414;2023-02-18T06:37:44;97935.31;;;12.33;67.41
35649;BME280;21768;48.562;13.414;2023-02-18T06:40:10;97933.56;;;12.32;67.48
35649;BME280;21768;48.562;13.414;2023-02-18T06:42:35;97926.75;;;12.31;67.68
35649;BME280;21768;48.562;13.414;2023-02-18T06:45:01;97934.34;;;12.31;67.40
35649;BME280;21768;48.562;13.414;2023-02-18T06:47:26;97926.53;;;12.28;67.45
35649;BME280;21768;48.562;13.414;2023-02-18T06:49:51;97928.97;;;12.26;67.71
35649;BME280;21768;48.562;13.414;2023-02-18T06:52:17;97931.50;;;12.26;67.67
35649;BME280;21768;48.562;13.414;2023-02-18T06:54:42;97921.94;;;12.22;67.69
35649;BME280;21768;48.562;13.414;2023-02-18T06:57:08;97922.81;;;12.23;67.72
35649;BME280;21768;48.562;13.414;2023-02-18T06:59:33;97922.03;;;12.24;67.79
35649;BME280;21768;48.562;13.414;2023-02-18T07:01:58;97928.88;;;12.25;67.45
35649;BME280;21768;48.562;13.414;2023-02-18T07:04:24;97930.63;;;12.26;67.62
35649;BME280;21768;48.562;13.414;2023-02-18T07:06:49;97930.72;;;12.27;67.50
35649;BME280;21768;48.562;13.414;2023-02-18T07:09:14;97929.19;;;12.30;67.46
35649;BME280;21768;48.562;13.414;2023-02-18T07:11:40;97929.06;;;12.28;67.43
35649;BME280;21768;48.562;13.414;2023-02-18T07:14:05;97925.75;;;12.29;67.29
35649;BME280;21768;48.562;13.414;2023-02-18T07:16:31;97914.09;;;12.31;67.25
35649;BME280;21768;48.562;13.414;2023-02-18T07:18:56;97922.66;;;12.33;67.25
35649;BME280;21768;48.562;13.414;2023-02-18T07:21:21;97928.72;;;12.35;67.20
35649;BME280;21768;48.562;13.414;2023-02-18T07:23:47;97936.41;;;12.37;67.01
35649;BME280;21768;48.562;13.414;2023-02-18T07:26:13;97927.94;;;12.36;66.84
35649;BME280;21768;48.562;13.414;2023-02-18T07:28:39;97927.06;;;12.36;66.80
35649;BME280;21768;48.562;13.414;2023-02-18T07:31:05;97920.53;;;12.39;66.54
35649;BME280;21768;48.562;13.414;2023-02-18T07:33:31;97932.28;;;12.39;66.23
35649;BME280;21768;48.562;13.414;2023-02-18T07:35:58;97918.09;;;12.41;66.02
35649;BME280;21768;48.562;13.414;2023-02-18T07:38:25;97917.41;;;12.43;65.98
35649;BME280;21768;48.562;13.414;2023-02-18T07:40:51;97913.44;;;12.47;65.67
35649;BME280;21768;48.562;13.414;2023-02-18T07:43:17;97922.91;;;12.49;65.59
35649;BME280;21768;48.562;13.414;2023-02-18T07:45:42;97917.16;;;12.52;65.48
35649;BME280;21768;48.562;13.414;2023-02-18T07:48:08;97918.44;;;12.58;65.30
35649;BME280;21768;48.562;13.414;2023-02-18T07:50:34;97920.19;;;12.59;65.00
35649;BME280;21768;48.562;13.414;2023-02-18T07:53:04;97919.50;;;12.62;64.82
35649;BME280;21768;48.562;13.414;2023-02-18T07:55:30;97914.63;;;12.65;64.84
35649;BME280;21768;48.562;13.414;2023-02-18T07:58:21;97923.50;;;12.72;64.52
35649;BME280;21768;48.562;13.414;2023-02-18T08:00:47;97915.44;;;12.77;64.40
35649;BME280;21768;48.562;13.414;2023-02-18T08:03:15;97908.16;;;12.82;64.13
35649;BME280;21768;48.562;13.414;2023-02-18T08:05:41;97909.91;;;12.83;63.69
35649;BME280;21768;48.562;13.414;2023-02-18T08:08:06;97905.91;;;12.86;63.94
35649;BME280;21768;48.562;13.414;2023-02-18T08:10:32;97907.84;;;12.90;63.99
35649;BME280;21768;48.562;13.414;2023-02-18T08:12:57;97908.91;;;12.94;63.76
35649;BME280;21768;48.562;13.414;2023-02-18T08:15:22;97905.81;;;12.98;63.49
35649;BME280;21768;48.562;13.414;2023-02-18T08:17:48;97898.31;;;13.00;63.01
35649;BME280;21768;48.562;13.414;2023-02-18T08:20:13;97892.56;;;13.02;62.57
35649;BME280;21768;48.562;13.414;2023-02-18T08:22:38;97884.38;;;13.06;62.43
35649;BME280;21768;48.562;13.414;2023-02-18T08:25:04;97881.31;;;13.12;62.27
35649;BME280;21768;48.562;13.414;2023-02-18T08:27:30;97877.94;;;13.24;61.96
35649;BME280;21768;48.562;13.414;2023-02-18T08:29:55;97882.97;;;13.38;62.14
35649;BME280;21768;48.562;13.414;2023-02-18T08:32:21;97885.13;;;13.45;60.92
35649;BME280;21768;48.562;13.414;2023-02-18T08:34:46;97875.94;;;13.47;61.08
35649;BME280;21768;48.562;13.414;2023-02-18T08:37:12;97881.78;;;13.59;60.89
35649;BME280;21768;48.562;13.414;2023-02-18T08:39:38;97870.03;;;13.61;60.86
35649;BME280;21768;48.562;13.414;2023-02-18T08:42:04;97870.31;;;13.66;60.06
35649;BME280;21768;48.562;13.414;2023-02-18T08:44:29;97862.72;;;13.66;59.90
35649;BME280;21768;48.562;13.414;2023-02-18T08:46:54;97870.41;;;13.67;59.93
35649;BME280;21768;48.562;13.414;2023-02-18T08:49:20;97862.03;;;13.68;59.94
35649;BME280;21768;48.562;13.414;2023-02-18T08:51:51;97868.06;;;13.70;59.37
35649;BME280;21768;48.562;13.414;2023-02-18T08:54:17;97874.53;;;13.65;59.73
35649;BME280;21768;48.562;13.414;2023-02-18T08:56:43;97870.22;;;13.64;59.09
35649;BME280;21768;48.562;13.414;2023-02-18T08:59:08;97869.09;;;13.59;59.35
35649;BME280;21768;48.562;13.414;2023-02-18T09:01:34;97877.41;;;13.56;59.14
35649;BME280;21768;48.562;13.414;2023-02-18T09:03:59;97878.38;;;13.58;59.62
35649;BME280;21768;48.562;13.414;2023-02-18T09:06:25;97876.28;;;13.66;59.53
35649;BME280;21768;48.562;13.414;2023-02-18T09:08:50;97870.41;;;13.67;58.48
35649;BME280;21768;48.562;13.414;2023-02-18T09:11:16;97870.03;;;13.61;58.86
35649;BME280;21768;48.562;13.414;2023-02-18T09:13:41;97863.16;;;13.58;58.77
35649;BME280;21768;48.562;13.414;2023-02-18T09:16:11;97868.38;;;13.61;58.92
35649;BME280;21768;48.562;13.414;2023-02-18T09:18:37;97862.53;;;13.62;58.45
35649;BME280;21768;48.562;13.414;2023-02-18T09:21:04;97858.34;;;13.63;58.78
35649;BME280;21768;48.562;13.414;2023-02-18T09:23:32;97853.63;;;13.69;58.88
35649;BME280;21768;48.562;13.414;2023-02-18T09:25:58;97852.34;;;13.76;59.07
35649;BME280;21768;48.562;13.414;2023-02-18T09:28:24;97845.91;;;13.81;58.48
35649;BME280;21768;48.562;13.414;2023-02-18T09:30:50;97849.16;;;13.93;57.97
35649;BME280;21768;48.562;13.414;2023-02-18T09:33:16;97849.19;;;14.08;57.49
35649;BME280;21768;48.562;13.414;2023-02-18T09:35:43;97851.53;;;14.19;57.57
35649;BME280;21768;48.562;13.414;2023-02-18T09:38:10;97837.38;;;14.23;57.39
35649;BME280;21768;48.562;13.414;2023-02-18T09:40:38;97845.06;;;14.39;57.18
35649;BME280;21768;48.562;13.414;2023-02-18T09:43:06;97845.19;;;14.41;57.29
35649;BME280;21768;48.562;13.414;2023-02-18T09:45:32;97834.91;;;14.39;57.40
35649;BME280;21768;48.562;13.414;2023-02-18T09:47:59;97844.38;;;14.27;56.75
35649;BME280;21768;48.562;13.414;2023-02-18T09:50:30;97835.53;;;14.20;57.18
35649;BME280;21768;48.562;13.414;2023-02-18T09:53:01;97843.00;;;14.32;56.77
35649;BME280;21768;48.562;13.414;2023-02-18T09:58:07;97830.13;;;14.58;56.84
35649;BME280;21768;48.562;13.414;2023-02-18T10:00:39;97817.34;;;14.88;55.75
35649;BME280;21768;48.562;13.414;2023-02-18T10:03:16;97817.22;;;15.32;54.64
35649;BME280;21768;48.562;13.414;2023-02-18T10:05:57;97818.28;;;16.01;53.12
35649;BME280;21768;48.562;13.414;2023-02-18T10:08:28;97815.25;;;16.08;52.83
35649;BME280;21768;48.562;13.414;2023-02-18T10:10:54;97815.72;;;15.84;52.87
35649;BME280;21768;48.562;13.414;2023-02-18T10:13:27;97804.47;;;15.63;52.93
35649;BME280;21768;48.562;13.414;2023-02-18T10:15:53;97806.81;;;15.44;52.59
35649;BME280;21768;48.562;13.414;2023-02-18T10:20:48;97794.19;;;15.45;52.84
35649;BME280;21768;48.562;13.414;2023-02-18T10:23:15;97796.97;;;15.50;51.31
35649;BME280;21768;48.562;13.414;2023-02-18T10:25:43;97784.41;;;15.37;51.14
35649;BME280;21768;48.562;13.414;2023-02-18T10:28:10;97788.84;;;15.24;52.35
35649;BME280;21768;48.562;13.414;2023-02-18T10:30:51;97788.44;;;15.17;51.77
35649;BME280;21768;48.562;13.414;2023-02-18T10:33:37;97787.66;;;15.18;51.99
35649;BME280;21768;48.562;13.414;2023-02-18T10:41:46;97772.94;;;15.93;49.99
35649;BME280;21768;48.562;13.414;2023-02-18T10:47:05;97747.56;;;15.95;49.04
35649;BME280;21768;48.562;13.414;2023-02-18T10:49:52;97753.22;;;15.89;49.14
35649;BME280;21768;48.562;13.414;2023-02-18T10:52:19;97766.75;;;15.88;48.97
35649;BME280;21768;48.562;13.414;2023-02-18T10:55:07;97758.59;;;15.78;49.10
35649;BME280;21768;48.562;13.414;2023-02-18T10:57:34;97749.56;;;15.84;49.26
35649;BME280;21768;48.562;13.414;2023-02-18T11:00:15;97759.31;;;15.75;50.27
35649;BME280;21768;48.562;13.414;2023-02-18T11:02:42;97759.06;;;15.54;49.41
35649;BME280;21768;48.562;13.414;2023-02-18T11:05:23;97753.75;;;15.34;49.54
35649;BME280;21768;48.562;13.414;2023-02-18T11:07:52;97753.19;;;15.23;50.03
35649;BME280;21768;48.562;13.414;2023-02-18T11:10:23;97754.84;;;15.22;50.15
35649;BME280;21768;48.562;13.414;2023-02-18T11:12:51;97739.97;;;16.13;49.31
35649;BME280;21768;48.562;13.414;2023-02-18T11:15:20;97726.66;;;16.36;47.98
35649;BME280;21768;48.562;13.414;2023-02-18T11:17:54;97722.66;;;16.23;47.55
35649;BME280;21768;48.562;13.414;2023-02-18T11:20:33;97725.63;;;16.15;48.48
35649;BME280;21768;48.562;13.414;2023-02-18T11:25:26;97712.34;;;15.86;48.23
35649;BME280;21768;48.562;13.414;2023-02-18T11:27:59;97709.22;;;15.74;48.57
35649;BME280;21768;48.562;13.414;2023-02-18T11:30:32;97713.03;;;15.66;49.04
35649;BME280;21768;48.562;13.414;2023-02-18T11:33:06;97697.44;;;15.76;48.76
35649;BME280;21768;48.562;13.414;2023-02-18T11:35:33;97686.34;;;16.10;48.19
35649;BME280;21768;48.562;13.414;2023-02-18T11:38:01;97683.94;;;16.13;48.67
35649;BME280;21768;48.562;13.414;2023-02-18T11:40:32;97693.06;;;16.08;48.33
35649;BME280;21768;48.562;13.414;2023-02-18T11:43:18;97689.13;;;15.96;48.60
35649;BME280;21768;48.562;13.414;2023-02-18T11:45:44;97677.84;;;16.09;48.55
35649;BME280;21768;48.562;13.414;2023-02-18T11:48:18;97674.06;;;16.19;48.06
35649;BME280;21768;48.562;13.414;2023-02-18T11:50:50;97657.78;;;16.33;47.58
35649;BME280;21768;48.562;13.414;2023-02-18T11:53:35;97654.34;;;16.32;48.02
35649;BME280;21768;48.562;13.414;2023-02-18T11:56:05;97644.03;;;16.29;47.79
35649;BME280;21768;48.562;13.414;2023-02-18T11:58:42;97648.53;;;16.17;48.12
35649;BME280;21768;48.562;13.414;2023-02-18T12:01:27;97651.72;;;15.95;48.49
35649;BME280;21768;48.562;13.414;2023-02-18T12:04:13;97637.50;;;15.81;48.36
35649;BME280;21768;48.562;13.414;2023-02-18T12:06:47;97644.44;;;15.85;48.94
35649;BME280;21768;48.562;13.414;2023-02-18T12:09:26;97635.28;;;15.89;48.36
35649;BME280;21768;48.562;13.414;2023-02-18T12:11:57;97657.84;;;15.81;48.92
35649;BME280;21768;48.562;13.414;2023-02-18T12:14:23;97639.88;;;15.96;48.16
35649;BME280;21768;48.562;13.414;2023-02-18T12:17:02;97632.78;;;16.07;47.76
35649;BME280;21768;48.562;13.414;2023-02-18T12:22:44;97602.34;;;16.10;48.45
35649;BME280;21768;48.562;13.414;2023-02-18T12:34:12;97598.81;;;16.62;46.98
35649;BME280;21768;48.562;13.414;2023-02-18T12:41:51;97600.78;;;17.26;45.69
35649;BME280;21768;48.562;13.414;2023-02-18T12:44:58;97588.75;;;17.23;46.14
35649;BME280;21768;48.562;13.414;2023-02-18T12:53:48;97582.44;;;17.97;43.45
35649;BME280;21768;48.562;13.414;2023-02-18T12:56:47;97567.88;;;18.17;44.07
35649;BME280;21768;48.562;13.414;2023-02-18T13:05:17;97567.41;;;17.63;44.36
35649;BME280;21768;48.562;13.414;2023-02-18T13:13:25;97552.56;;;16.92;45.61
35649;BME280;21768;48.562;13.414;2023-02-18T13:15:55;97560.75;;;16.85;45.49
35649;BME280;21768;48.562;13.414;2023-02-18T13:18:43;97551.06;;;16.76;45.77
35649;BME280;21768;48.562;13.414;2023-02-18T13:21:14;97540.78;;;16.55;46.56
35649;BME280;21768;48.562;13.414;2023-02-18T13:24:00;97534.47;;;16.47;46.65
35649;BME280;21768;48.562;13.414;2023-02-18T13:26:27;97534.25;;;16.43;46.63
35649;BME280;21768;48.562;13.414;2023-02-18T13:39:56;97537.25;;;16.15;47.53
35649;BME280;21768;48.562;13.414;2023-02-18T13:42:29;97537.50;;;16.02;47.80
35649;BME280;21768;48.562;13.414;2023-02-18T13:50:22;97547.56;;;15.63;48.60
35649;BME280;21768;48.562;13.414;2023-02-18T13:55:40;97535.44;;;15.57;49.20
35649;BME280;21768;48.562;13.414;2023-02-18T13:58:15;97535.03;;;15.50;49.59
35649;BME280;21768;48.562;13.414;2023-02-18T14:00:49;97543.38;;;15.47;49.48
35649;BME280;21768;48.562;13.414;2023-02-18T14:05:55;97538.59;;;15.53;50.05
35649;BME280;21768;48.562;13.414;2023-02-18T14:08:33;97531.16;;;15.56;49.54
35649;BME280;21768;48.562;13.414;2023-02-18T14:13:48;97527.41;;;15.50;49.89
35649;BME280;21768;48.562;13.414;2023-02-18T14:16:17;97536.47;;;15.45;50.00
35649;BME280;21768;48.562;13.414;2023-02-18T14:33:39;97522.31;;;15.32;50.51
35649;BME280;21768;48.562;13.414;2023-02-18T14:36:23;97515.34;;;15.28;50.72
35649;BME280;21768;48.562;13.414;2023-02-18T14:39:06;97511.13;;;15.28;50.89
35649;BME280;21768;48.562;13.414;2023-02-18T14:41:59;97515.09;;;15.23;50.80
35649;BME280;21768;48.562;13.414;2023-02-18T14:50:04;97516.53;;;15.18;50.64
35649;BME280;21768;48.562;13.414;2023-02-18T14:52:44;97516.69;;;15.21;50.54
35649;BME280;21768;48.562;13.414;2023-02-18T14:55:29;97506.38;;;15.18;50.89
35649;BME280;21768;48.562;13.414;2023-02-18T14:58:02;97509.56;;;15.14;50.60
35649;BME280;21768;48.562;13.414;2023-02-18T15:00:33;97500.34;;;15.16;50.91
35649;BME280;21768;48.562;13.414;2023-02-18T15:03:00;97498.75;;;15.18;50.73
35649;BME280;21768;48.562;13.414;2023-02-18T15:05:28;97501.53;;;15.23;50.62